Time,TemperatureF,DewpointF,PressureIn,WindDirection,WindDirectionDegrees,WindSpeedMPH,WindSpeedGustMPH,Humidity,HourlyPrecipIn,Conditions,Clouds,dailyrainin,SoftwareType,DateUTC
2013-12-17 00:01:00,38.8,17.2,29.18,South,178,0.0,0.0,41,0.00,,---,0.00,VWS V15.00,2013-12-17 06:01:00,
2013-12-17 00:06:00,38.3,17.2,29.18,South,178,0.0,0.0,42,0.00,,---,0.00,VWS V15.00,2013-12-17 06:06:00,
2013-12-17 00:11:00,38.1,17.6,29.18,South,179,0.0,0.0,43,0.00,,---,0.00,VWS V15.00,2013-12-17 06:11:00,
2013-12-17 00:15:00,37.9,17.5,29.18,SW,216,0.0,0.0,43,0.00,,---,0.00,VWS V15.00,2013-12-17 06:15:00,
2013-12-17 00:20:00,37.8,17.3,29.18,SW,216,0.0,0.0,43,0.00,,---,0.00,VWS V15.00,2013-12-17 06:20:00,
2013-12-17 00:25:00,37.8,17.3,29.18,SW,216,0.0,0.0,43,0.00,,---,0.00,VWS V15.00,2013-12-17 06:25:00,
2013-12-17 00:30:00,37.6,17.7,29.18,South,177,2.7,2.7,44,0.00,,---,0.00,VWS V15.00,2013-12-17 06:30:00,
2013-12-17 00:35:00,37.6,17.7,29.18,SSE,163,0.0,0.0,44,0.00,,---,0.00,VWS V15.00,2013-12-17 06:35:00,
2013-12-17 00:40:00,37.4,18.0,29.15,South,186,2.7,2.7,45,0.00,,---,0.00,VWS V15.00,2013-12-17 06:40:00,
2013-12-17 00:45:00,37.4,18.0,29.15,South,181,3.6,3.6,45,0.00,,---,0.00,VWS V15.00,2013-12-17 06:45:00,
2013-12-17 00:50:00,37.6,18.2,29.15,SSW,192,0.0,0.0,45,0.00,,---,0.00,VWS V15.00,2013-12-17 06:50:00,
2013-12-17 00:55:00,37.4,18.0,29.15,South,190,2.7,2.7,45,0.00,,---,0.00,VWS V15.00,2013-12-17 06:55:00,
2013-12-17 01:00:00,37.4,18.0,29.15,South,191,2.7,2.7,45,0.00,,---,0.00,VWS V15.00,2013-12-17 07:00:00,
2013-12-17 01:05:00,37.4,18.0,29.15,South,189,2.7,2.7,45,0.00,,---,0.00,VWS V15.00,2013-12-17 07:05:00,
2013-12-17 01:10:00,37.4,18.5,29.15,SSE,167,2.7,2.7,46,0.00,,---,0.00,VWS V15.00,2013-12-17 07:10:00,
2013-12-17 01:15:00,37.6,18.2,29.18,South,180,2.7,2.7,45,0.00,,---,0.00,VWS V15.00,2013-12-17 07:15:00,
2013-12-17 01:20:00,37.6,18.2,29.18,SSE,165,3.6,3.6,45,0.00,,---,0.00,VWS V15.00,2013-12-17 07:20:00,
2013-12-17 01:25:00,37.6,18.2,29.18,SSE,162,2.7,2.7,45,0.00,,---,0.00,VWS V15.00,2013-12-17 07:25:00,
2013-12-17 01:30:00,37.6,18.2,29.18,South,171,2.7,3.6,45,0.00,,---,0.00,VWS V15.00,2013-12-17 07:30:00,
2013-12-17 01:35:00,37.4,18.0,29.18,South,183,3.6,3.6,45,0.00,,---,0.00,VWS V15.00,2013-12-17 07:35:00,
2013-12-17 01:40:00,37.6,18.2,29.18,South,184,2.2,2.7,45,0.00,,---,0.00,VWS V15.00,2013-12-17 07:40:00,
2013-12-17 01:45:00,37.4,18.0,29.18,South,184,0.0,0.0,45,0.00,,---,0.00,VWS V15.00,2013-12-17 07:45:00,
2013-12-17 01:50:00,37.0,17.7,29.18,South,184,0.0,0.0,45,0.00,,---,0.00,VWS V15.00,2013-12-17 07:50:00,
2013-12-17 01:55:00,37.0,17.7,29.18,South,174,0.0,4.0,45,0.00,,---,0.00,VWS V15.00,2013-12-17 07:55:00,
2013-12-17 02:00:00,37.0,18.2,29.18,South,174,0.0,0.0,46,0.00,,---,0.00,VWS V15.00,2013-12-17 08:00:00,
2013-12-17 02:05:00,36.9,18.0,29.18,South,181,3.1,3.1,46,0.00,,---,0.00,VWS V15.00,2013-12-17 08:05:00,
2013-12-17 02:10:00,36.7,18.4,29.18,SSW,199,2.7,2.7,47,0.00,,---,0.00,VWS V15.00,2013-12-17 08:10:00,
2013-12-17 02:15:00,36.7,18.4,29.18,SW,229,0.0,0.0,47,0.00,,---,0.00,VWS V15.00,2013-12-17 08:15:00,
2013-12-17 02:20:00,36.7,18.4,29.18,SW,235,0.0,0.0,47,0.00,,---,0.00,VWS V15.00,2013-12-17 08:20:00,
2013-12-17 02:25:00,36.5,18.2,29.18,SW,235,2.2,2.2,47,0.00,,---,0.00,VWS V15.00,2013-12-17 08:25:00,
2013-12-17 02:30:00,36.3,18.0,29.18,South,186,0.0,0.0,47,0.00,,---,0.00,VWS V15.00,2013-12-17 08:30:00,
2013-12-17 02:35:00,36.3,18.5,29.18,South,185,0.0,0.0,48,0.00,,---,0.00,VWS V15.00,2013-12-17 08:35:00,
2013-12-17 02:40:00,36.5,19.2,29.18,South,178,0.0,0.0,49,0.00,,---,0.00,VWS V15.00,2013-12-17 08:40:00,
2013-12-17 02:45:00,36.5,19.2,29.18,South,178,0.0,0.0,49,0.00,,---,0.00,VWS V15.00,2013-12-17 08:45:00,
2013-12-17 02:50:00,36.5,19.2,29.18,South,177,0.0,0.0,49,0.00,,---,0.00,VWS V15.00,2013-12-17 08:50:00,
2013-12-17 02:55:00,36.5,19.2,29.18,South,178,0.0,0.0,49,0.00,,---,0.00,VWS V15.00,2013-12-17 08:55:00,
2013-12-17 03:00:00,36.5,19.2,29.18,South,178,0.0,0.0,49,0.00,,---,0.00,VWS V15.00,2013-12-17 09:00:00,
2013-12-17 03:05:00,36.5,19.2,29.18,South,177,2.7,2.7,49,0.00,,---,0.00,VWS V15.00,2013-12-17 09:05:00,
2013-12-17 03:10:00,36.5,19.6,29.18,South,177,0.0,0.0,50,0.00,,---,0.00,VWS V15.00,2013-12-17 09:10:00,
2013-12-17 03:15:00,36.1,19.3,29.18,South,182,2.2,2.2,50,0.00,,---,0.00,VWS V15.00,2013-12-17 09:15:00,
2013-12-17 03:20:00,36.1,19.3,29.18,SW,218,0.0,0.0,50,0.00,,---,0.00,VWS V15.00,2013-12-17 09:20:00,
2013-12-17 03:25:00,36.0,19.1,29.18,South,180,0.0,0.0,50,0.00,,---,0.00,VWS V15.00,2013-12-17 09:25:00,
2013-12-17 03:30:00,36.0,19.1,29.18,SW,229,0.0,0.0,50,0.00,,---,0.00,VWS V15.00,2013-12-17 09:30:00,
2013-12-17 03:35:00,35.6,18.8,29.18,SW,229,0.0,0.0,50,0.00,,---,0.00,VWS V15.00,2013-12-17 09:35:00,
2013-12-17 03:40:00,35.8,19.0,29.18,South,186,2.2,2.2,50,0.00,,---,0.00,VWS V15.00,2013-12-17 09:40:00,
2013-12-17 03:45:00,35.8,19.4,29.18,South,186,3.1,3.1,51,0.00,,---,0.00,VWS V15.00,2013-12-17 09:45:00,
2013-12-17 03:50:00,35.8,19.0,29.18,WSW,247,3.1,3.1,50,0.00,,---,0.00,VWS V15.00,2013-12-17 09:50:00,
2013-12-17 03:55:00,35.8,19.0,29.18,South,184,0.0,0.0,50,0.00,,---,0.00,VWS V15.00,2013-12-17 09:55:00,
2013-12-17 04:00:00,35.8,19.0,29.18,South,184,2.7,2.7,50,0.00,,---,0.00,VWS V15.00,2013-12-17 10:00:00,
2013-12-17 04:05:00,35.8,19.4,29.18,South,184,2.2,2.2,51,0.00,,---,0.00,VWS V15.00,2013-12-17 10:05:00,
2013-12-17 04:10:00,35.6,18.8,29.18,SW,228,0.0,0.0,50,0.00,,---,0.00,VWS V15.00,2013-12-17 10:10:00,
2013-12-17 04:15:00,35.6,18.8,29.18,SSE,160,2.7,2.7,50,0.00,,---,0.00,VWS V15.00,2013-12-17 10:15:00,
2013-12-17 04:20:00,35.6,18.8,29.18,SSW,192,3.1,3.1,50,0.00,,---,0.00,VWS V15.00,2013-12-17 10:20:00,
2013-12-17 04:25:00,35.1,18.8,29.18,SSW,208,2.2,2.2,51,0.00,,---,0.00,VWS V15.00,2013-12-17 10:25:00,
2013-12-17 04:30:00,35.2,18.9,29.18,South,184,2.7,2.7,51,0.00,,---,0.00,VWS V15.00,2013-12-17 10:30:00,
2013-12-17 04:35:00,35.2,19.4,29.18,South,185,2.7,2.7,52,0.00,,---,0.00,VWS V15.00,2013-12-17 10:35:00,
2013-12-17 04:40:00,35.4,19.6,29.15,South,185,0.0,0.0,52,0.00,,---,0.00,VWS V15.00,2013-12-17 10:40:00,
2013-12-17 04:45:00,35.4,19.6,29.15,South,185,0.0,0.0,52,0.00,,---,0.00,VWS V15.00,2013-12-17 10:45:00,
2013-12-17 04:50:00,35.6,19.7,29.15,South,185,0.0,0.0,52,0.00,,---,0.00,VWS V15.00,2013-12-17 10:50:00,
2013-12-17 04:55:00,35.6,19.7,29.15,South,185,2.2,2.2,52,0.00,,---,0.00,VWS V15.00,2013-12-17 10:55:00,
2013-12-17 05:00:00,34.9,18.6,29.15,South,185,2.2,2.2,51,0.00,,---,0.00,VWS V15.00,2013-12-17 11:00:00,
2013-12-17 05:05:00,34.9,18.6,29.15,South,184,0.0,0.0,51,0.00,,---,0.00,VWS V15.00,2013-12-17 11:05:00,
2013-12-17 05:10:00,35.4,19.6,29.15,South,183,0.0,0.0,52,0.00,,---,0.00,VWS V15.00,2013-12-17 11:10:00,
2013-12-17 05:16:00,35.6,19.3,29.15,South,183,0.0,2.2,51,0.00,,---,0.00,VWS V15.00,2013-12-17 11:16:00,
2013-12-17 05:21:00,35.6,19.3,29.15,South,183,0.0,2.2,51,0.00,,---,0.00,VWS V15.00,2013-12-17 11:21:00,
2013-12-17 05:26:00,35.8,19.4,29.15,South,184,2.7,2.7,51,0.00,,---,0.00,VWS V15.00,2013-12-17 11:26:00,
2013-12-17 05:31:00,36.0,19.6,29.15,South,183,2.7,2.7,51,0.00,,---,0.00,VWS V15.00,2013-12-17 11:31:00,
2013-12-17 05:36:00,36.1,19.8,29.15,SSE,167,2.7,2.7,51,0.00,,---,0.00,VWS V15.00,2013-12-17 11:36:00,
2013-12-17 05:41:00,36.1,19.8,29.15,SSE,168,2.7,2.7,51,0.00,,---,0.00,VWS V15.00,2013-12-17 11:41:00,
2013-12-17 05:46:00,36.5,19.6,29.18,SSE,168,2.2,2.2,50,0.00,,---,0.00,VWS V15.00,2013-12-17 11:46:00,
2013-12-17 05:51:00,36.9,19.5,29.18,South,182,2.2,2.2,49,0.00,,---,0.00,VWS V15.00,2013-12-17 11:51:00,
2013-12-17 05:56:00,36.9,19.5,29.18,South,181,0.0,0.0,49,0.00,,---,0.00,VWS V15.00,2013-12-17 11:56:00,
2013-12-17 06:01:00,36.9,19.5,29.18,South,182,2.2,2.2,49,0.00,,---,0.00,VWS V15.00,2013-12-17 12:01:00,
2013-12-17 06:34:00,37.0,18.2,29.18,South,177,3.1,3.1,46,0.00,,---,0.00,VWS V15.00,2013-12-17 12:34:00,
2013-12-17 06:39:00,37.0,18.2,29.18,SSE,156,3.1,3.1,46,0.00,,---,0.00,VWS V15.00,2013-12-17 12:39:00,
2013-12-17 06:44:00,37.0,18.2,29.18,South,178,2.7,2.7,46,0.00,,---,0.00,VWS V15.00,2013-12-17 12:44:00,
2013-12-17 06:49:00,37.4,18.0,29.18,South,175,2.2,2.2,45,0.00,,---,0.00,VWS V15.00,2013-12-17 12:49:00,
2013-12-17 06:54:00,37.2,17.9,29.18,South,183,2.2,3.6,45,0.00,,---,0.00,VWS V15.00,2013-12-17 12:54:00,
2013-12-17 06:59:00,37.2,18.4,29.18,South,174,2.2,2.2,46,0.00,,---,0.00,VWS V15.00,2013-12-17 12:59:00,
2013-12-17 07:04:00,37.2,17.9,29.18,SSE,159,2.2,4.0,45,0.00,,---,0.00,VWS V15.00,2013-12-17 13:04:00,
2013-12-17 07:09:00,37.4,18.0,29.18,SSE,154,2.7,3.6,45,0.00,,---,0.00,VWS V15.00,2013-12-17 13:09:00,
2013-12-17 07:14:00,37.4,18.0,29.18,SSE,166,2.7,3.1,45,0.00,,---,0.00,VWS V15.00,2013-12-17 13:14:00,
2013-12-17 07:19:00,37.4,18.0,29.18,SSE,166,0.0,0.0,45,0.00,,---,0.00,VWS V15.00,2013-12-17 13:19:00,
2013-12-17 07:24:00,37.6,18.7,29.18,SSE,166,0.0,0.0,46,0.00,,---,0.00,VWS V15.00,2013-12-17 13:24:00,
2013-12-17 07:29:00,37.9,19.5,29.18,SSE,166,0.0,0.0,47,0.00,,---,0.00,VWS V15.00,2013-12-17 13:29:00,
2013-12-17 07:34:00,38.1,19.7,29.18,SSW,196,4.0,4.0,47,0.00,,---,0.00,VWS V15.00,2013-12-17 13:34:00,
2013-12-17 07:39:00,38.3,19.9,29.18,SSE,149,2.2,2.2,47,0.00,,---,0.00,VWS V15.00,2013-12-17 13:39:00,
2013-12-17 07:44:00,38.8,19.8,29.18,South,183,4.5,4.5,46,0.00,,---,0.00,VWS V15.00,2013-12-17 13:44:00,
2013-12-17 07:49:00,39.2,20.2,29.18,ESE,102,3.6,5.4,46,0.00,,---,0.00,VWS V15.00,2013-12-17 13:49:00,
2013-12-17 07:54:00,41.2,18.7,29.18,SSE,165,4.0,4.0,40,0.00,,---,0.00,VWS V15.00,2013-12-17 13:54:00,
2013-12-17 07:59:00,41.5,19.0,29.18,SSW,192,3.1,3.1,40,0.00,,---,0.00,VWS V15.00,2013-12-17 13:59:00,
2013-12-17 08:04:00,43.3,20.1,29.18,South,175,3.6,4.0,39,0.00,,---,0.00,VWS V15.00,2013-12-17 14:04:00,
2013-12-17 08:09:00,44.6,18.0,29.18,South,170,6.3,6.3,34,0.00,,---,0.00,VWS V15.00,2013-12-17 14:09:00,
2013-12-17 08:14:00,45.0,17.6,29.18,SW,227,2.2,2.2,33,0.00,,---,0.00,VWS V15.00,2013-12-17 14:14:00,
2013-12-17 08:19:00,45.7,18.2,29.18,South,170,2.7,2.7,33,0.00,,---,0.00,VWS V15.00,2013-12-17 14:19:00,
2013-12-17 08:24:00,45.9,17.0,29.18,South,169,5.4,5.4,31,0.00,,---,0.00,VWS V15.00,2013-12-17 14:24:00,
2013-12-17 08:29:00,46.2,18.0,29.18,SSE,162,4.0,4.0,32,0.00,,---,0.00,VWS V15.00,2013-12-17 14:29:00,
2013-12-17 08:32:00,46.9,17.9,29.18,SSE,153,6.3,6.3,31,0.00,,---,0.00,VWS V15.00,2013-12-17 14:32:00,
2013-12-17 08:37:00,47.7,17.8,29.18,SSE,158,4.9,6.3,30,0.00,,---,0.00,VWS V15.00,2013-12-17 14:37:00,
2013-12-17 08:42:00,48.4,17.6,29.18,SSE,168,3.1,3.6,29,0.00,,---,0.00,VWS V15.00,2013-12-17 14:42:00,
2013-12-17 08:47:00,49.5,17.7,29.18,South,182,3.1,3.1,28,0.00,,---,0.00,VWS V15.00,2013-12-17 14:47:00,
2013-12-17 08:52:00,50.0,17.4,29.18,South,176,6.3,6.3,27,0.00,,---,0.00,VWS V15.00,2013-12-17 14:52:00,
2013-12-17 08:57:00,50.0,17.4,29.18,SSE,168,5.8,5.8,27,0.00,,---,0.00,VWS V15.00,2013-12-17 14:57:00,
2013-12-17 09:02:00,51.6,18.8,29.18,South,181,3.6,5.4,27,0.00,,---,0.00,VWS V15.00,2013-12-17 15:02:00,
2013-12-17 09:07:00,52.2,18.3,29.18,South,170,3.6,3.6,26,0.00,,---,0.00,VWS V15.00,2013-12-17 15:07:00,
2013-12-17 09:12:00,52.2,18.3,29.18,SSE,155,4.9,4.9,26,0.00,,---,0.00,VWS V15.00,2013-12-17 15:12:00,
2013-12-17 09:16:00,52.2,18.3,29.18,SE,139,3.1,3.1,26,0.00,,---,0.00,VWS V15.00,2013-12-17 15:16:00,
2013-12-17 09:21:00,52.2,18.3,29.18,South,186,6.3,6.3,26,0.00,,---,0.00,VWS V15.00,2013-12-17 15:21:00,
2013-12-17 09:26:00,52.2,18.3,29.18,SSE,166,5.8,5.8,26,0.00,,---,0.00,VWS V15.00,2013-12-17 15:26:00,
2013-12-17 09:31:00,54.3,14.1,29.18,SSE,164,3.6,4.9,20,0.00,,---,0.00,VWS V15.00,2013-12-17 15:31:00,
2013-12-17 09:36:00,54.3,14.1,29.18,South,176,5.8,5.8,20,0.00,,---,0.00,VWS V15.00,2013-12-17 15:36:00,
2013-12-17 09:41:00,54.3,14.1,29.18,SSW,206,5.8,6.3,20,0.00,,---,0.00,VWS V15.00,2013-12-17 15:41:00,
2013-12-17 09:46:00,54.3,14.1,29.18,SSE,164,7.6,7.6,20,0.00,,---,0.00,VWS V15.00,2013-12-17 15:46:00,
2013-12-17 09:51:00,56.3,12.1,29.18,SE,144,5.8,5.8,17,0.00,,---,0.00,VWS V15.00,2013-12-17 15:51:00,
2013-12-17 09:56:00,56.1,11.9,29.18,SSE,154,3.6,3.6,17,0.00,,---,0.00,VWS V15.00,2013-12-17 15:56:00,
2013-12-17 10:01:00,56.5,12.2,29.15,SE,141,6.3,6.3,17,0.00,,---,0.00,VWS V15.00,2013-12-17 16:01:00,
2013-12-17 10:06:00,56.5,12.2,29.15,SE,135,5.8,5.8,17,0.00,,---,0.00,VWS V15.00,2013-12-17 16:06:00,
2013-12-17 10:11:00,56.5,12.2,29.15,SSE,151,5.4,5.4,17,0.00,,---,0.00,VWS V15.00,2013-12-17 16:11:00,
2013-12-17 10:16:00,57.6,13.1,29.15,NNW,331,2.7,3.1,17,0.00,,---,0.00,VWS V15.00,2013-12-17 16:16:00,
2013-12-17 10:21:00,58.8,14.1,29.15,SE,125,3.6,5.8,17,0.00,,---,0.00,VWS V15.00,2013-12-17 16:21:00,
2013-12-17 10:26:00,58.8,14.1,29.15,SE,127,3.1,3.1,17,0.00,,---,0.00,VWS V15.00,2013-12-17 16:26:00,
2013-12-17 10:31:00,58.8,14.1,29.15,South,172,3.1,6.3,17,0.00,,---,0.00,VWS V15.00,2013-12-17 16:31:00,
2013-12-17 10:36:00,58.8,14.1,29.15,SE,131,4.0,4.0,17,0.00,,---,0.00,VWS V15.00,2013-12-17 16:36:00,
2013-12-17 10:41:00,60.4,15.4,29.15,SSE,168,2.7,2.7,17,0.00,,---,0.00,VWS V15.00,2013-12-17 16:41:00,
2013-12-17 10:46:00,61.3,11.8,29.15,WSW,257,3.1,3.1,14,0.00,,---,0.00,VWS V15.00,2013-12-17 16:46:00,
2013-12-17 10:51:00,61.7,12.1,29.15,SSE,162,3.1,3.1,14,0.00,,---,0.00,VWS V15.00,2013-12-17 16:51:00,
2013-12-17 10:56:00,62.8,11.2,29.15,SE,141,2.7,2.7,13,0.00,,---,0.00,VWS V15.00,2013-12-17 16:56:00,
2013-12-17 11:57:00,65.5,13.4,29.12,ESE,108,2.2,2.2,13,0.00,,---,0.00,VWS V15.00,2013-12-17 17:57:00,
2013-12-17 12:02:00,65.8,13.6,29.09,SW,231,5.4,5.4,13,0.00,,---,0.00,VWS V15.00,2013-12-17 18:02:00,
2013-12-17 12:07:00,66.6,12.4,29.09,SSE,152,2.7,4.9,12,0.00,,---,0.00,VWS V15.00,2013-12-17 18:07:00,
2013-12-17 12:12:00,66.4,12.3,29.09,SW,234,3.6,3.6,12,0.00,,---,0.00,VWS V15.00,2013-12-17 18:12:00,
2013-12-17 12:17:00,65.7,13.5,29.09,North,10,3.1,3.1,13,0.00,,---,0.00,VWS V15.00,2013-12-17 18:17:00,
2013-12-17 12:22:00,65.3,13.2,29.09,WNW,298,5.8,5.8,13,0.00,,---,0.00,VWS V15.00,2013-12-17 18:22:00,
2013-12-17 12:27:00,66.0,13.8,29.09,NNW,345,2.7,2.7,13,0.00,,---,0.00,VWS V15.00,2013-12-17 18:27:00,
2013-12-17 12:32:00,66.2,12.1,29.09,WSW,257,3.6,3.6,12,0.00,,---,0.00,VWS V15.00,2013-12-17 18:32:00,
2013-12-17 12:37:00,66.2,12.1,29.09,SW,222,3.1,3.1,12,0.00,,---,0.00,VWS V15.00,2013-12-17 18:37:00,
2013-12-17 12:42:00,66.7,12.5,29.09,SSW,199,4.9,4.9,12,0.00,,---,0.00,VWS V15.00,2013-12-17 18:42:00,
2013-12-17 12:47:00,66.9,12.7,29.06,SSE,152,3.1,3.1,12,0.00,,---,0.00,VWS V15.00,2013-12-17 18:47:00,
2013-12-17 12:52:00,66.4,12.3,29.06,SSW,199,5.4,11.0,12,0.00,,---,0.00,VWS V15.00,2013-12-17 18:52:00,
2013-12-17 12:57:00,66.4,12.3,29.06,SSW,199,7.2,7.2,12,0.00,,---,0.00,VWS V15.00,2013-12-17 18:57:00,
2013-12-17 13:02:00,66.4,12.3,29.06,WNW,299,4.0,4.0,12,0.00,,---,0.00,VWS V15.00,2013-12-17 19:02:00,
2013-12-17 13:07:00,66.4,12.3,29.06,SW,229,0.0,0.0,12,0.00,,---,0.00,VWS V15.00,2013-12-17 19:07:00,
2013-12-17 13:12:00,66.4,12.3,29.06,SW,222,4.0,4.0,12,0.00,,---,0.00,VWS V15.00,2013-12-17 19:12:00,
2013-12-17 13:17:00,66.7,12.5,29.06,WSW,239,2.7,2.7,12,0.00,,---,0.00,VWS V15.00,2013-12-17 19:17:00,
2013-12-17 13:22:00,66.6,12.4,29.06,SE,124,3.6,3.6,12,0.00,,---,0.00,VWS V15.00,2013-12-17 19:22:00,
2013-12-17 13:27:00,66.4,12.3,29.06,WSW,258,2.2,2.2,12,0.00,,---,0.00,VWS V15.00,2013-12-17 19:27:00,
2013-12-17 13:32:00,66.2,12.1,29.06,SE,145,2.7,2.7,12,0.00,,---,0.00,VWS V15.00,2013-12-17 19:32:00,
2013-12-17 13:37:00,66.2,12.1,29.06,SSE,166,3.6,3.6,12,0.00,,---,0.00,VWS V15.00,2013-12-17 19:37:00,
2013-12-17 13:42:00,65.8,13.6,29.06,West,271,2.7,2.7,13,0.00,,---,0.00,VWS V15.00,2013-12-17 19:42:00,
2013-12-17 13:47:00,65.7,13.5,29.06,SSE,164,4.0,4.0,13,0.00,,---,0.00,VWS V15.00,2013-12-17 19:47:00,
2013-12-17 13:52:00,65.3,13.2,29.06,WNW,287,5.8,5.8,13,0.00,,---,0.00,VWS V15.00,2013-12-17 19:52:00,
2013-12-17 13:57:00,65.3,13.2,29.06,WNW,286,2.2,2.2,13,0.00,,---,0.00,VWS V15.00,2013-12-17 19:57:00,
2013-12-17 14:02:00,65.3,13.2,29.06,SW,233,3.1,3.1,13,0.00,,---,0.00,VWS V15.00,2013-12-17 20:02:00,
2013-12-17 14:07:00,65.3,13.2,29.06,SSW,202,2.7,2.7,13,0.00,,---,0.00,VWS V15.00,2013-12-17 20:07:00,
2013-12-17 14:12:00,64.9,12.9,29.06,SSE,168,4.0,4.0,13,0.00,,---,0.00,VWS V15.00,2013-12-17 20:12:00,
2013-12-17 15:58:00,58.1,9.2,29.06,ENE,76,3.6,3.6,14,0.00,,---,0.00,VWS V15.00,2013-12-17 21:58:00,
2013-12-17 16:03:00,57.9,9.0,29.09,WSW,244,2.7,2.7,14,0.00,,---,0.00,VWS V15.00,2013-12-17 22:03:00,
2013-12-17 16:08:00,57.6,8.7,29.09,WSW,245,3.6,3.6,14,0.00,,---,0.00,VWS V15.00,2013-12-17 22:08:00,
2013-12-17 16:13:00,57.4,8.6,29.09,SSE,149,0.0,3.1,14,0.00,,---,0.00,VWS V15.00,2013-12-17 22:13:00,
2013-12-17 16:16:00,57.2,8.4,29.06,SSE,166,5.8,5.8,14,0.00,,---,0.00,VWS V15.00,2013-12-17 22:16:00,
2013-12-17 16:21:00,57.0,9.8,29.06,SW,222,0.0,4.0,15,0.00,,---,0.00,VWS V15.00,2013-12-17 22:21:00,
2013-12-17 16:26:00,56.8,9.7,29.06,SW,232,0.0,0.0,15,0.00,,---,0.00,VWS V15.00,2013-12-17 22:26:00,
2013-12-17 16:31:00,56.5,9.4,29.09,West,263,0.0,0.0,15,0.00,,---,0.00,VWS V15.00,2013-12-17 22:31:00,
2013-12-17 16:36:00,56.1,9.1,29.09,SSW,198,3.1,3.1,15,0.00,,---,0.00,VWS V15.00,2013-12-17 22:36:00,
2013-12-17 16:41:00,55.9,9.0,29.09,WSW,243,0.0,0.0,15,0.00,,---,0.00,VWS V15.00,2013-12-17 22:41:00,
2013-12-17 16:46:00,55.8,8.8,29.06,WSW,253,0.0,0.0,15,0.00,,---,0.00,VWS V15.00,2013-12-17 22:46:00,
2013-12-17 16:51:00,55.4,8.5,29.06,West,279,0.0,2.2,15,0.00,,---,0.00,VWS V15.00,2013-12-17 22:51:00,
2013-12-17 16:56:00,55.2,8.4,29.06,WSW,245,0.0,0.0,15,0.00,,---,0.00,VWS V15.00,2013-12-17 22:56:00,
2013-12-17 17:01:00,54.9,12.2,29.09,WSW,245,0.0,0.0,18,0.00,,---,0.00,VWS V15.00,2013-12-17 23:01:00,
2013-12-17 17:06:00,54.5,7.8,29.09,SSW,211,0.0,0.0,15,0.00,,---,0.00,VWS V15.00,2013-12-17 23:06:00,
2013-12-17 17:11:00,54.5,7.8,29.09,WNW,303,2.2,2.2,15,0.00,,---,0.00,VWS V15.00,2013-12-17 23:11:00,
2013-12-17 17:16:00,54.1,7.5,29.09,WNW,286,0.0,0.0,15,0.00,,---,0.00,VWS V15.00,2013-12-17 23:16:00,
2013-12-17 17:21:00,54.0,7.4,29.09,NW,306,0.0,2.2,15,0.00,,---,0.00,VWS V15.00,2013-12-17 23:21:00,
2013-12-17 17:26:00,53.8,11.3,29.09,SW,231,0.0,0.0,18,0.00,,---,0.00,VWS V15.00,2013-12-17 23:26:00,
2013-12-17 17:31:00,53.4,11.0,29.09,NW,325,0.0,2.7,18,0.00,,---,0.00,VWS V15.00,2013-12-17 23:31:00,
2013-12-17 17:36:00,53.4,11.0,29.09,NNW,334,0.0,0.0,18,0.00,,---,0.00,VWS V15.00,2013-12-17 23:36:00,
2013-12-17 17:41:00,53.2,10.9,29.09,WSW,254,3.1,3.1,18,0.00,,---,0.00,VWS V15.00,2013-12-17 23:41:00,
2013-12-17 17:46:00,53.1,10.7,29.09,WSW,254,0.0,0.0,18,0.00,,---,0.00,VWS V15.00,2013-12-17 23:46:00,
2013-12-17 17:51:00,52.7,10.4,29.09,WSW,254,0.0,0.0,18,0.00,,---,0.00,VWS V15.00,2013-12-17 23:51:00,
2013-12-17 17:56:00,52.7,10.4,29.09,WSW,254,0.0,0.0,18,0.00,,---,0.00,VWS V15.00,2013-12-17 23:56:00,
2013-12-17 18:01:00,52.5,10.2,29.09,WSW,244,2.7,2.7,18,0.00,,---,0.00,VWS V15.00,2013-12-18 00:01:00,
2013-12-17 18:06:00,52.3,10.1,29.09,WSW,244,2.7,2.7,18,0.00,,---,0.00,VWS V15.00,2013-12-18 00:06:00,
2013-12-17 18:10:00,52.3,13.6,29.09,WNW,291,0.0,0.0,21,0.00,,---,0.00,VWS V15.00,2013-12-18 00:10:00,
2013-12-17 18:15:00,52.0,13.3,29.09,WNW,292,0.0,0.0,21,0.00,,---,0.00,VWS V15.00,2013-12-18 00:15:00,
2013-12-17 18:20:00,52.0,13.3,29.09,SW,217,0.0,0.0,21,0.00,,---,0.00,VWS V15.00,2013-12-18 00:20:00,
2013-12-17 18:25:00,51.6,13.0,29.12,SW,217,0.0,0.0,21,0.00,,---,0.00,VWS V15.00,2013-12-18 00:25:00,
2013-12-17 18:30:00,51.6,16.0,29.12,WNW,290,4.0,4.0,24,0.00,,---,0.00,VWS V15.00,2013-12-18 00:30:00,
2013-12-17 18:35:00,52.0,18.2,29.12,ESE,108,0.0,0.0,26,0.00,,---,0.00,VWS V15.00,2013-12-18 00:35:00,
2013-12-17 18:40:00,52.0,15.4,29.12,West,261,0.0,0.0,23,0.00,,---,0.00,VWS V15.00,2013-12-18 00:40:00,
2013-12-17 18:45:00,52.0,15.4,29.12,West,261,0.0,0.0,23,0.00,,---,0.00,VWS V15.00,2013-12-18 00:45:00,
2013-12-17 18:50:00,52.7,16.0,29.12,West,276,10.5,10.5,23,0.00,,---,0.00,VWS V15.00,2013-12-18 00:50:00,
2013-12-17 18:55:00,52.7,16.0,29.12,West,276,10.5,10.5,23,0.00,,---,0.00,VWS V15.00,2013-12-18 00:55:00,
2013-12-17 19:00:00,52.5,15.8,29.12,NW,323,8.7,8.7,23,0.00,,---,0.00,VWS V15.00,2013-12-18 01:00:00,
2013-12-17 19:05:00,52.3,15.7,29.12,NW,317,8.3,8.3,23,0.00,,---,0.00,VWS V15.00,2013-12-18 01:05:00,
2013-12-17 19:10:00,52.0,15.4,29.12,NW,317,8.3,8.3,23,0.00,,---,0.00,VWS V15.00,2013-12-18 01:10:00,
2013-12-17 19:15:00,51.6,16.0,29.12,NNW,345,6.3,6.3,24,0.00,,---,0.00,VWS V15.00,2013-12-18 01:15:00,
2013-12-17 19:20:00,51.6,16.0,29.12,NNW,345,6.3,6.3,24,0.00,,---,0.00,VWS V15.00,2013-12-18 01:20:00,
2013-12-17 19:25:00,51.4,15.9,29.12,NW,312,13.2,13.2,24,0.00,,---,0.00,VWS V15.00,2013-12-18 01:25:00,
2013-12-17 19:30:00,51.3,17.6,29.12,NNW,329,2.7,5.8,26,0.00,,---,0.00,VWS V15.00,2013-12-18 01:30:00,
2013-12-17 19:35:00,51.1,17.4,29.15,NNW,331,5.8,5.8,26,0.00,,---,0.00,VWS V15.00,2013-12-18 01:35:00,
2013-12-17 19:40:00,50.7,17.1,29.15,NNW,329,3.6,3.6,26,0.00,,---,0.00,VWS V15.00,2013-12-18 01:40:00,
2013-12-17 19:45:00,50.4,16.8,29.15,NNW,329,3.6,3.6,26,0.00,,---,0.00,VWS V15.00,2013-12-18 01:45:00,
2013-12-17 19:50:00,50.0,16.5,29.15,NW,324,3.1,3.1,26,0.00,,---,0.00,VWS V15.00,2013-12-18 01:50:00,
2013-12-17 19:55:00,49.8,17.2,29.15,NNW,335,4.0,4.0,27,0.00,,---,0.00,VWS V15.00,2013-12-18 01:55:00,
2013-12-17 20:00:00,49.5,16.9,29.15,North,357,4.0,4.0,27,0.00,,---,0.00,VWS V15.00,2013-12-18 02:00:00,
2013-12-17 20:05:00,49.5,16.9,29.15,North,353,4.9,4.9,27,0.00,,---,0.00,VWS V15.00,2013-12-18 02:05:00,
2013-12-17 20:10:00,49.1,16.6,29.15,North,357,4.9,4.9,27,0.00,,---,0.00,VWS V15.00,2013-12-18 02:10:00,
2013-12-17 20:15:00,49.1,16.6,29.15,NNW,336,5.4,5.4,27,0.00,,---,0.00,VWS V15.00,2013-12-18 02:15:00,
2013-12-17 20:20:00,48.6,15.2,29.18,North,1,5.4,5.4,26,0.00,,---,0.00,VWS V15.00,2013-12-18 02:20:00,
2013-12-17 20:25:00,48.2,15.8,29.18,NNW,335,3.6,3.6,27,0.00,,---,0.00,VWS V15.00,2013-12-18 02:25:00,
2013-12-17 20:30:00,48.0,15.6,29.18,North,1,5.4,5.4,27,0.00,,---,0.00,VWS V15.00,2013-12-18 02:30:00,
2013-12-17 20:35:00,47.5,15.2,29.18,NNW,335,5.4,5.4,27,0.00,,---,0.00,VWS V15.00,2013-12-18 02:35:00,
2013-12-17 20:40:00,47.5,15.2,29.18,NNW,334,4.9,4.9,27,0.00,,---,0.00,VWS V15.00,2013-12-18 02:40:00,
2013-12-17 20:45:00,46.9,12.1,29.18,North,353,5.8,5.8,24,0.00,,---,0.00,VWS V15.00,2013-12-18 02:45:00,
2013-12-17 20:50:00,46.8,9.9,29.18,NW,310,7.6,7.6,22,0.00,,---,0.00,VWS V15.00,2013-12-18 02:50:00,
2013-12-17 20:55:00,46.8,9.9,29.18,NNE,25,4.9,4.9,22,0.00,,---,0.00,VWS V15.00,2013-12-18 02:55:00,
2013-12-17 21:00:00,46.2,9.5,29.18,North,353,3.6,3.6,22,0.00,,---,0.00,VWS V15.00,2013-12-18 03:00:00,
2013-12-17 21:05:00,45.9,9.2,29.18,NNW,333,5.8,5.8,22,0.00,,---,0.00,VWS V15.00,2013-12-18 03:05:00,
2013-12-17 21:10:00,45.5,6.8,29.18,NNW,345,9.6,9.6,20,0.00,,---,0.00,VWS V15.00,2013-12-18 03:10:00,
2013-12-17 21:15:00,45.5,6.8,29.18,North,350,8.7,8.7,20,0.00,,---,0.00,VWS V15.00,2013-12-18 03:15:00,
2013-12-17 21:20:00,45.1,6.5,29.21,NNW,344,7.6,7.6,20,0.00,,---,0.00,VWS V15.00,2013-12-18 03:20:00,
2013-12-17 21:25:00,44.8,6.2,29.21,North,1,5.8,5.8,20,0.00,,---,0.00,VWS V15.00,2013-12-18 03:25:00,
2013-12-17 21:30:00,44.8,6.2,29.21,North,350,3.6,3.6,20,0.00,,---,0.00,VWS V15.00,2013-12-18 03:30:00,
2013-12-17 21:35:00,44.4,5.9,29.21,NNW,345,4.9,4.9,20,0.00,,---,0.00,VWS V15.00,2013-12-18 03:35:00,
2013-12-17 21:40:00,44.2,5.7,29.21,North,353,4.9,4.9,20,0.00,,---,0.00,VWS V15.00,2013-12-18 03:40:00,
2013-12-17 21:45:00,44.2,5.7,29.21,NNW,342,2.7,2.7,20,0.00,,---,0.00,VWS V15.00,2013-12-18 03:45:00,
2013-12-17 21:50:00,44.2,5.7,29.21,NNW,345,5.8,5.8,20,0.00,,---,0.00,VWS V15.00,2013-12-18 03:50:00,
2013-12-17 21:55:00,43.7,5.3,29.21,NNW,344,4.9,4.9,20,0.00,,---,0.00,VWS V15.00,2013-12-18 03:55:00,
2013-12-17 22:00:00,43.5,5.1,29.21,NNW,331,5.4,5.4,20,0.00,,---,0.00,VWS V15.00,2013-12-18 04:00:00,
2013-12-17 22:05:00,43.3,5.0,29.21,NNW,340,5.4,5.4,20,0.00,,---,0.00,VWS V15.00,2013-12-18 04:05:00,
2013-12-17 22:10:00,43.3,5.0,29.21,NNW,327,3.1,3.1,20,0.00,,---,0.00,VWS V15.00,2013-12-18 04:10:00,
2013-12-17 22:15:00,43.3,5.0,29.21,NNW,342,3.6,3.6,20,0.00,,---,0.00,VWS V15.00,2013-12-18 04:15:00,
2013-12-17 22:20:00,42.3,5.1,29.23,West,271,0.0,0.0,21,0.00,,---,0.00,VWS V15.00,2013-12-18 04:20:00,
2013-12-17 22:25:00,42.3,5.1,29.23,North,357,3.6,3.6,21,0.00,,---,0.00,VWS V15.00,2013-12-18 04:25:00,
2013-12-17 22:30:00,41.9,4.8,29.23,NW,322,3.1,3.1,21,0.00,,---,0.00,VWS V15.00,2013-12-18 04:30:00,
2013-12-17 22:35:00,41.7,4.7,29.23,NNW,329,5.8,5.8,21,0.00,,---,0.00,VWS V15.00,2013-12-18 04:35:00,
2013-12-17 22:40:00,41.9,4.8,29.23,North,2,4.0,4.0,21,0.00,,---,0.00,VWS V15.00,2013-12-18 04:40:00,
2013-12-17 22:45:00,41.9,4.8,29.23,NNW,344,7.6,7.6,21,0.00,,---,0.00,VWS V15.00,2013-12-18 04:45:00,
2013-12-17 22:50:00,41.9,4.8,29.23,North,349,3.1,3.1,21,0.00,,---,0.00,VWS V15.00,2013-12-18 04:50:00,
2013-12-17 22:55:00,41.4,4.4,29.23,NW,318,2.7,2.7,21,0.00,,---,0.00,VWS V15.00,2013-12-18 04:55:00,
2013-12-17 23:00:00,41.4,4.4,29.23,NNW,335,0.0,2.7,21,0.00,,---,0.00,VWS V15.00,2013-12-18 05:00:00,
2013-12-17 23:01:00,41.2,6.2,29.23,NNW,335,0.0,0.0,23,0.00,,---,0.00,VWS V15.00,2013-12-18 05:01:00,
2013-12-17 23:06:00,41.2,6.2,29.23,NNW,335,0.0,0.0,23,0.00,,---,0.00,VWS V15.00,2013-12-18 05:06:00,
2013-12-17 23:11:00,40.6,5.8,29.23,NW,324,0.0,0.0,23,0.00,,---,0.00,VWS V15.00,2013-12-18 05:11:00,
2013-12-17 23:16:00,40.3,8.1,29.23,NW,323,0.0,0.0,26,0.00,,---,0.00,VWS V15.00,2013-12-18 05:16:00,
2013-12-17 23:21:00,39.9,7.8,29.23,NNW,343,3.6,3.6,26,0.00,,---,0.00,VWS V15.00,2013-12-18 05:21:00,
2013-12-17 23:26:00,39.9,7.8,29.23,NE,51,0.0,0.0,26,0.00,,---,0.00,VWS V15.00,2013-12-18 05:26:00,
2013-12-17 23:31:00,39.7,7.7,29.23,NNW,345,5.4,5.4,26,0.00,,---,0.00,VWS V15.00,2013-12-18 05:31:00,
2013-12-17 23:36:00,39.7,7.7,29.23,WNW,299,3.1,3.1,26,0.00,,---,0.00,VWS V15.00,2013-12-18 05:36:00,
2013-12-17 23:41:00,39.7,7.7,29.23,NW,318,2.7,2.7,26,0.00,,---,0.00,VWS V15.00,2013-12-18 05:41:00,
2013-12-17 23:46:00,39.4,7.4,29.23,North,349,0.0,0.0,26,0.00,,---,0.00,VWS V15.00,2013-12-18 05:46:00,
2013-12-17 23:51:00,39.4,9.0,29.23,North,350,0.0,0.0,28,0.00,,---,0.00,VWS V15.00,2013-12-18 05:51:00,
2013-12-17 23:56:00,39.0,9.5,29.23,NW,324,0.0,4.0,29,0.00,,---,0.00,VWS V15.00,2013-12-18 05:56:00,